sensor_id;sensor_type;location;lat;lon;timestamp;pressure;altitude;pressure_sealevel;temperature;humidity
51261;BME280;61705;46.228;24.812;2023-03-18T00:00:09;98105.25;;;-1.42;81.44
51261;BME280;61705;46.228;24.812;2023-03-18T00:02:40;98095.78;;;-1.37;80.29
51261;BME280;61705;46.228;24.812;2023-03-18T00:05:08;98094.94;;;-1.36;79.67
51261;BME280;61705;46.228;24.812;2023-03-18T00:07:36;98098.38;;;-1.34;80.02
51261;BME280;61705;46.228;24.812;2023-03-18T00:10:06;98093.97;;;-1.49;80.26
51261;BME280;61705;46.228;24.812;2023-03-18T00:12:35;98089.63;;;-1.50;80.05
51261;BME280;61705;46.228;24.812;2023-03-18T00:15:08;98083.63;;;-1.46;79.53
51261;BME280;61705;46.228;24.812;2023-03-18T00:17:35;98083.56;;;-1.52;80.35
51261;BME280;61705;46.228;24.812;2023-03-18T00:20:04;98087.75;;;-1.66;80.79
51261;BME280;61705;46.228;24.812;2023-03-18T00:22:33;98086.06;;;-1.64;81.39
51261;BME280;61705;46.228;24.812;2023-03-18T00:24:59;98089.38;;;-1.76;82.32
51261;BME280;61705;46.228;24.812;2023-03-18T00:27:27;98090.19;;;-1.84;82.80
51261;BME280;61705;46.228;24.812;2023-03-18T00:29:58;98091.06;;;-1.79;83.28
51261;BME280;61705;46.228;24.812;2023-03-18T00:32:25;98081.66;;;-1.71;83.05
51261;BME280;61705;46.228;24.812;2023-03-18T00:34:54;98085.97;;;-1.72;81.98
51261;BME280;61705;46.228;24.812;2023-03-18T00:37:26;98084.13;;;-1.83;81.55
51261;BME280;61705;46.228;24.812;2023-03-18T00:40:02;98087.59;;;-1.84;81.04
51261;BME280;61705;46.228;24.812;2023-03-18T00:42:33;98084.03;;;-1.93;80.81
51261;BME280;61705;46.228;24.812;2023-03-18T00:45:08;98090.09;;;-1.91;80.40
51261;BME280;61705;46.228;24.812;2023-03-18T00:47:44;98093.53;;;-1.92;81.48
51261;BME280;61705;46.228;24.812;2023-03-18T00:50:11;98090.88;;;-1.99;81.36
51261;BME280;61705;46.228;24.812;2023-03-18T00:52:40;98089.94;;;-2.06;80.39
51261;BME280;61705;46.228;24.812;2023-03-18T00:55:09;98092.44;;;-2.13;80.42
51261;BME280;61705;46.228;24.812;2023-03-18T00:57:36;98097.47;;;-2.26;81.67
51261;BME280;61705;46.228;24.812;2023-03-18T01:00:06;98091.41;;;-2.26;80.64
51261;BME280;61705;46.228;24.812;2023-03-18T01:02:36;98093.09;;;-2.31;80.34
51261;BME280;61705;46.228;24.812;2023-03-18T01:05:03;98097.34;;;-2.36;82.13
51261;BME280;61705;46.228;24.812;2023-03-18T01:07:30;98103.19;;;-2.51;82.67
51261;BME280;61705;46.228;24.812;2023-03-18T01:09:59;98099.66;;;-2.59;84.26
51261;BME280;61705;46.228;24.812;2023-03-18T01:12:26;98095.31;;;-2.60;84.88
51261;BME280;61705;46.228;24.812;2023-03-18T01:14:53;98091.03;;;-2.58;84.15
51261;BME280;61705;46.228;24.812;2023-03-18T01:17:19;98094.47;;;-2.58;82.33
51261;BME280;61705;46.228;24.812;2023-03-18T01:19:46;98095.38;;;-2.54;83.39
51261;BME280;61705;46.228;24.812;2023-03-18T01:22:23;98084.09;;;-2.61;82.16
51261;BME280;61705;46.228;24.812;2023-03-18T01:24:49;98082.41;;;-2.57;81.17
51261;BME280;61705;46.228;24.812;2023-03-18T01:27:20;98087.69;;;-2.51;82.48
51261;BME280;61705;46.228;24.812;2023-03-18T01:29:46;98079.81;;;-2.57;82.96
51261;BME280;61705;46.228;24.812;2023-03-18T01:32:14;98088.53;;;-2.52;84.31
51261;BME280;61705;46.228;24.812;2023-03-18T01:34:41;98084.94;;;-2.62;85.27
51261;BME280;61705;46.228;24.812;2023-03-18T01:37:08;98089.25;;;-2.63;86.05
51261;BME280;61705;46.228;24.812;2023-03-18T01:39:34;98092.75;;;-2.59;86.31
51261;BME280;61705;46.228;24.812;2023-03-18T01:42:02;98083.22;;;-2.63;85.97
51261;BME280;61705;46.228;24.812;2023-03-18T01:44:30;98097.13;;;-2.55;86.02
51261;BME280;61705;46.228;24.812;2023-03-18T01:46:57;98102.28;;;-2.55;85.47
51261;BME280;61705;46.228;24.812;2023-03-18T01:49:30;98098.06;;;-2.48;85.25
51261;BME280;61705;46.228;24.812;2023-03-18T01:52:04;98098.97;;;-2.45;84.33
51261;BME280;61705;46.228;24.812;2023-03-18T01:54:36;98101.56;;;-2.45;83.99
51261;BME280;61705;46.228;24.812;2023-03-18T01:57:04;98098.97;;;-2.45;83.59
51261;BME280;61705;46.228;24.812;2023-03-18T01:59:33;98097.19;;;-2.49;83.39
51261;BME280;61705;46.228;24.812;2023-03-18T02:02:09;98097.97;;;-2.56;83.71
51261;BME280;61705;46.228;24.812;2023-03-18T02:04:42;98101.34;;;-2.63;84.15
51261;BME280;61705;46.228;24.812;2023-03-18T02:07:20;98099.28;;;-2.84;83.80
51261;BME280;61705;46.228;24.812;2023-03-18T02:09:50;98103.44;;;-2.97;84.28
51261;BME280;61705;46.228;24.812;2023-03-18T02:12:28;98100.75;;;-3.01;85.02
51261;BME280;61705;46.228;24.812;2023-03-18T02:14:55;98097.38;;;-2.99;85.03
51261;BME280;61705;46.228;24.812;2023-03-18T02:17:25;98100.88;;;-2.95;85.13
51261;BME280;61705;46.228;24.812;2023-03-18T02:22:36;98104.34;;;-2.92;84.69
51261;BME280;61705;46.228;24.812;2023-03-18T02:25:30;98099.66;;;-3.19;84.53
51261;BME280;61705;46.228;24.812;2023-03-18T02:28:07;98103.84;;;-3.25;84.70
51261;BME280;61705;46.228;24.812;2023-03-18T02:30:58;98102.13;;;-3.25;85.08
51261;BME280;61705;46.228;24.812;2023-03-18T02:33:30;98097.75;;;-3.29;84.74
51261;BME280;61705;46.228;24.812;2023-03-18T02:36:04;98103.78;;;-3.28;85.30
51261;BME280;61705;46.228;24.812;2023-03-18T02:38:31;98110.56;;;-3.38;85.33
51261;BME280;61705;46.228;24.812;2023-03-18T02:40:58;98104.47;;;-3.42;85.50
51261;BME280;61705;46.228;24.812;2023-03-18T02:48:44;98106.94;;;-3.46;86.89
51261;BME280;61705;46.228;24.812;2023-03-18T02:51:13;98105.22;;;-3.47;86.97
51261;BME280;61705;46.228;24.812;2023-03-18T02:53:40;98106.84;;;-3.54;86.80
51261;BME280;61705;46.228;24.812;2023-03-18T02:56:13;98115.38;;;-3.57;86.95
51261;BME280;61705;46.228;24.812;2023-03-18T02:58:42;98105.84;;;-3.61;86.81
51261;BME280;61705;46.228;24.812;2023-03-18T03:01:12;98113.59;;;-3.61;86.86
51261;BME280;61705;46.228;24.812;2023-03-18T03:03:39;98115.38;;;-3.58;86.55
51261;BME280;61705;46.228;24.812;2023-03-18T03:06:07;98117.22;;;-3.51;86.63
51261;BME280;61705;46.228;24.812;2023-03-18T03:08:39;98116.19;;;-3.59;86.53
51261;BME280;61705;46.228;24.812;2023-03-18T03:11:09;98115.16;;;-3.70;85.90
51261;BME280;61705;46.228;24.812;2023-03-18T03:13:43;98122.94;;;-3.69;86.55
51261;BME280;61705;46.228;24.812;2023-03-18T03:16:14;98125.47;;;-3.70;86.50
51261;BME280;61705;46.228;24.812;2023-03-18T03:18:42;98126.34;;;-3.70;86.60
51261;BME280;61705;46.228;24.812;2023-03-18T03:21:10;98116.97;;;-3.65;85.72
51261;BME280;61705;46.228;24.812;2023-03-18T03:23:41;98116.13;;;-3.64;85.69
51261;BME280;61705;46.228;24.812;2023-03-18T03:26:15;98109.22;;;-3.65;85.43
51261;BME280;61705;46.228;24.812;2023-03-18T03:28:42;98108.31;;;-3.67;85.57
51261;BME280;61705;46.228;24.812;2023-03-18T03:31:12;98121.13;;;-3.73;85.88
51261;BME280;61705;46.228;24.812;2023-03-18T03:33:43;98120.19;;;-3.76;85.69
51261;BME280;61705;46.228;24.812;2023-03-18T03:36:12;98120.25;;;-3.75;85.90
51261;BME280;61705;46.228;24.812;2023-03-18T03:38:40;98108.31;;;-3.67;84.80
51261;BME280;61705;46.228;24.812;2023-03-18T03:41:09;98109.31;;;-3.60;85.31
51261;BME280;61705;46.228;24.812;2023-03-18T03:43:39;98117.97;;;-3.58;85.13
51261;BME280;61705;46.228;24.812;2023-03-18T03:46:07;98107.59;;;-3.60;85.47
51261;BME280;61705;46.228;24.812;2023-03-18T03:48:35;98114.47;;;-3.62;85.09
51261;BME280;61705;46.228;24.812;2023-03-18T03:51:02;98114.22;;;-3.74;84.94
51261;BME280;61705;46.228;24.812;2023-03-18T03:53:29;98110.72;;;-3.79;85.00
51261;BME280;61705;46.228;24.812;2023-03-18T03:55:56;98115.88;;;-3.77;85.16
51261;BME280;61705;46.228;24.812;2023-03-18T03:58:25;98118.41;;;-3.81;85.03
51261;BME280;61705;46.228;24.812;2023-03-18T04:00:52;98117.59;;;-3.78;85.24
51261;BME280;61705;46.228;24.812;2023-03-18T04:03:21;98122.69;;;-3.83;85.08
51261;BME280;61705;46.228;24.812;2023-03-18T04:05:47;98125.91;;;-3.94;85.06
51261;BME280;61705;46.228;24.812;2023-03-18T04:08:15;98121.44;;;-4.03;84.96
51261;BME280;61705;46.228;24.812;2023-03-18T04:10:41;98119.63;;;-4.07;85.46
51261;BME280;61705;46.228;24.812;2023-03-18T04:13:08;98127.38;;;-4.07;85.40
51261;BME280;61705;46.228;24.812;2023-03-18T04:15:43;98130.78;;;-4.10;85.33
51261;BME280;61705;46.228;24.812;2023-03-18T04:18:13;98119.63;;;-4.07;85.10
51261;BME280;61705;46.228;24.812;2023-03-18T04:20:43;98126.63;;;-4.01;85.37
51261;BME280;61705;46.228;24.812;2023-03-18T04:23:10;98115.31;;;-4.08;85.39
51261;BME280;61705;46.228;24.812;2023-03-18T04:25:36;98118.88;;;-4.03;85.40
51261;BME280;61705;46.228;24.812;2023-03-18T04:28:05;98118.09;;;-3.99;85.21
51261;BME280;61705;46.228;24.812;2023-03-18T04:30:37;98117.22;;;-3.99;85.79
51261;BME280;61705;46.228;24.812;2023-03-18T04:33:04;98116.44;;;-3.95;85.76
51261;BME280;61705;46.228;24.812;2023-03-18T04:35:31;98119.81;;;-3.98;85.61
51261;BME280;61705;46.228;24.812;2023-03-18T04:37:57;98130.22;;;-3.93;85.82
51261;BME280;61705;46.228;24.812;2023-03-18T04:40:24;98129.28;;;-3.98;85.67
51261;BME280;61705;46.228;24.812;2023-03-18T04:42:51;98120.78;;;-3.93;85.72
51261;BME280;61705;46.228;24.812;2023-03-18T04:45:21;98121.66;;;-3.92;85.03
51261;BME280;61705;46.228;24.812;2023-03-18T04:47:51;98120.78;;;-3.91;84.81
51261;BME280;61705;46.228;24.812;2023-03-18T04:50:22;98126.09;;;-3.84;84.75
51261;BME280;61705;46.228;24.812;2023-03-18T04:52:51;98128.84;;;-3.76;84.64
51261;BME280;61705;46.228;24.812;2023-03-18T04:55:18;98121.19;;;-3.70;84.30
51261;BME280;61705;46.228;24.812;2023-03-18T04:57:47;98119.28;;;-3.80;83.99
51261;BME280;61705;46.228;24.812;2023-03-18T05:00:16;98123.63;;;-3.79;83.88
51261;BME280;61705;46.228;24.812;2023-03-18T05:02:49;98126.28;;;-3.73;84.38
51261;BME280;61705;46.228;24.812;2023-03-18T05:05:19;98129.72;;;-3.74;83.98
51261;BME280;61705;46.228;24.812;2023-03-18T05:07:47;98133.22;;;-3.72;83.61
51261;BME280;61705;46.228;24.812;2023-03-18T05:10:14;98139.13;;;-3.77;83.48
51261;BME280;61705;46.228;24.812;2023-03-18T05:12:44;98134.88;;;-3.74;83.42
51261;BME280;61705;46.228;24.812;2023-03-18T05:15:11;98139.25;;;-3.71;83.35
51261;BME280;61705;46.228;24.812;2023-03-18T05:17:38;98145.34;;;-3.66;83.22
51261;BME280;61705;46.228;24.812;2023-03-18T05:20:07;98142.94;;;-3.57;83.55
51261;BME280;61705;46.228;24.812;2023-03-18T05:22:34;98150.69;;;-3.57;83.28
51261;BME280;61705;46.228;24.812;2023-03-18T05:25:01;98155.69;;;-3.66;83.15
51261;BME280;61705;46.228;24.812;2023-03-18T05:27:28;98151.41;;;-3.66;82.96
51261;BME280;61705;46.228;24.812;2023-03-18T05:29:55;98152.28;;;-3.65;82.99
51261;BME280;61705;46.228;24.812;2023-03-18T05:32:22;98155.47;;;-3.78;83.02
51261;BME280;61705;46.228;24.812;2023-03-18T05:34:52;98150.25;;;-3.80;83.17
51261;BME280;61705;46.228;24.812;2023-03-18T05:37:19;98156.41;;;-3.75;83.15
51261;BME280;61705;46.228;24.812;2023-03-18T05:39:46;98156.41;;;-3.73;83.24
51261;BME280;61705;46.228;24.812;2023-03-18T05:42:12;98156.59;;;-3.63;83.15
51261;BME280;61705;46.228;24.812;2023-03-18T05:44:39;98158.50;;;-3.54;82.96
51261;BME280;61705;46.228;24.812;2023-03-18T05:47:09;98155.97;;;-3.49;82.88
51261;BME280;61705;46.228;24.812;2023-03-18T05:49:40;98146.72;;;-3.37;82.56
51261;BME280;61705;46.228;24.812;2023-03-18T05:52:06;98153.84;;;-3.22;82.12
51261;BME280;61705;46.228;24.812;2023-03-18T05:54:33;98149.59;;;-3.21;82.09
51261;BME280;61705;46.228;24.812;2023-03-18T05:57:00;98146.22;;;-3.16;81.47
51261;BME280;61705;46.228;24.812;2023-03-18T05:59:26;98150.69;;;-3.07;81.35
51261;BME280;61705;46.228;24.812;2023-03-18T06:01:56;98156.72;;;-3.05;81.02
51261;BME280;61705;46.228;24.812;2023-03-18T06:04:23;98149.97;;;-2.97;80.79
51261;BME280;61705;46.228;24.812;2023-03-18T06:06:55;98154.31;;;-2.94;80.45
51261;BME280;61705;46.228;24.812;2023-03-18T06:09:22;98154.44;;;-2.87;80.13
51261;BME280;61705;46.228;24.812;2023-03-18T06:11:49;98154.59;;;-2.76;80.20
51261;BME280;61705;46.228;24.812;2023-03-18T06:14:16;98156.38;;;-2.72;80.00
51261;BME280;61705;46.228;24.812;2023-03-18T06:16:49;98156.47;;;-2.64;79.89
51261;BME280;61705;46.228;24.812;2023-03-18T06:19:16;98155.75;;;-2.55;79.34
51261;BME280;61705;46.228;24.812;2023-03-18T06:21:45;98166.19;;;-2.49;79.14
51261;BME280;61705;46.228;24.812;2023-03-18T06:24:12;98154.22;;;-2.40;79.35
51261;BME280;61705;46.228;24.812;2023-03-18T06:26:41;98160.44;;;-2.28;78.88
51261;BME280;61705;46.228;24.812;2023-03-18T06:29:07;98156.28;;;-2.14;78.84
51261;BME280;61705;46.228;24.812;2023-03-18T06:31:37;98160.56;;;-2.18;78.41
51261;BME280;61705;46.228;24.812;2023-03-18T06:34:03;98154.53;;;-2.17;78.41
51261;BME280;61705;46.228;24.812;2023-03-18T06:36:35;98153.69;;;-2.14;78.09
51261;BME280;61705;46.228;24.812;2023-03-18T06:39:02;98151.19;;;-2.06;78.25
51261;BME280;61705;46.228;24.812;2023-03-18T06:41:34;98147.97;;;-1.87;78.14
51261;BME280;61705;46.228;24.812;2023-03-18T06:44:00;98150.72;;;-1.73;77.75
51261;BME280;61705;46.228;24.812;2023-03-18T06:46:27;98146.50;;;-1.63;77.34
51261;BME280;61705;46.228;24.812;2023-03-18T06:48:54;98137.91;;;-1.59;76.41
51261;BME280;61705;46.228;24.812;2023-03-18T06:51:21;98138.03;;;-1.44;76.08
51261;BME280;61705;46.228;24.812;2023-03-18T06:53:50;98143.28;;;-1.38;75.99
51261;BME280;61705;46.228;24.812;2023-03-18T06:56:17;98134.78;;;-1.25;75.88
51261;BME280;61705;46.228;24.812;2023-03-18T06:58:46;98140.94;;;-1.10;75.01
51261;BME280;61705;46.228;24.812;2023-03-18T07:01:13;98141.06;;;-0.95;74.54
51261;BME280;61705;46.228;24.812;2023-03-18T07:03:40;98140.28;;;-0.85;74.02
51261;BME280;61705;46.228;24.812;2023-03-18T07:06:10;98142.97;;;-0.69;74.04
51261;BME280;61705;46.228;24.812;2023-03-18T07:08:42;98141.28;;;-0.58;72.78
51261;BME280;61705;46.228;24.812;2023-03-18T07:11:12;98136.19;;;-0.47;68.67
51261;BME280;61705;46.228;24.812;2023-03-18T07:13:41;98137.09;;;-0.38;69.34
51261;BME280;61705;46.228;24.812;2023-03-18T07:16:10;98138.88;;;-0.28;70.98
51261;BME280;61705;46.228;24.812;2023-03-18T07:18:37;98134.56;;;-0.24;67.89
51261;BME280;61705;46.228;24.812;2023-03-18T07:21:06;98132.06;;;-0.03;68.47
51261;BME280;61705;46.228;24.812;2023-03-18T07:23:35;98131.22;;;0.03;66.23
51261;BME280;61705;46.228;24.812;2023-03-18T07:26:06;98120.84;;;0.12;63.79
51261;BME280;61705;46.228;24.812;2023-03-18T07:28:35;98133.03;;;0.32;65.35
51261;BME280;61705;46.228;24.812;2023-03-18T07:31:02;98127.84;;;0.39;65.52
51261;BME280;61705;46.228;24.812;2023-03-18T07:33:30;98127.03;;;0.56;64.96
51261;BME280;61705;46.228;24.812;2023-03-18T07:36:01;98132.22;;;0.65;64.24
51261;BME280;61705;46.228;24.812;2023-03-18T07:38:27;98124.44;;;0.79;64.80
51261;BME280;61705;46.228;24.812;2023-03-18T07:40:55;98128.78;;;1.00;66.09
51261;BME280;61705;46.228;24.812;2023-03-18T07:43:25;98137.44;;;1.09;63.95
51261;BME280;61705;46.228;24.812;2023-03-18T07:45:52;98138.31;;;1.25;64.51
51261;BME280;61705;46.228;24.812;2023-03-18T07:48:21;98129.59;;;1.41;63.49
51261;BME280;61705;46.228;24.812;2023-03-18T07:50:51;98136.53;;;1.58;63.38
51261;BME280;61705;46.228;24.812;2023-03-18T07:53:20;98133.00;;;1.76;61.89
51261;BME280;61705;46.228;24.812;2023-03-18T07:55:50;98126.84;;;1.94;62.48
51261;BME280;61705;46.228;24.812;2023-03-18T07:58:17;98133.69;;;2.14;61.15
51261;BME280;61705;46.228;24.812;2023-03-18T08:00:44;98136.25;;;2.24;59.35
51261;BME280;61705;46.228;24.812;2023-03-18T08:03:11;98134.53;;;2.21;61.09
51261;BME280;61705;46.228;24.812;2023-03-18T08:05:39;98128.41;;;2.28;59.39
51261;BME280;61705;46.228;24.812;2023-03-18T08:08:06;98136.97;;;2.56;56.85
51261;BME280;61705;46.228;24.812;2023-03-18T08:10:33;98132.59;;;2.58;57.19
51261;BME280;61705;46.228;24.812;2023-03-18T08:13:00;98126.50;;;2.61;57.42
51261;BME280;61705;46.228;24.812;2023-03-18T08:15:28;98129.09;;;2.64;56.23
51261;BME280;61705;46.228;24.812;2023-03-18T08:17:55;98130.66;;;2.83;56.68
51261;BME280;61705;46.228;24.812;2023-03-18T08:20:22;98135.84;;;2.90;56.90
51261;BME280;61705;46.228;24.812;2023-03-18T08:22:52;98122.72;;;2.97;56.79
51261;BME280;61705;46.228;24.812;2023-03-18T08:25:19;98134.69;;;3.21;56.26
51261;BME280;61705;46.228;24.812;2023-03-18T08:27:49;98126.63;;;3.47;57.00
51261;BME280;61705;46.228;24.812;2023-03-18T08:30:18;98123.88;;;3.63;56.34
51261;BME280;61705;46.228;24.812;2023-03-18T08:32:45;98121.03;;;3.84;54.92
51261;BME280;61705;46.228;24.812;2023-03-18T08:35:12;98114.84;;;3.91;55.55
51261;BME280;61705;46.228;24.812;2023-03-18T08:37:39;98109.44;;;4.05;53.98
51261;BME280;61705;46.228;24.812;2023-03-18T08:40:06;98116.13;;;4.27;53.65
51261;BME280;61705;46.228;24.812;2023-03-18T08:42:35;98104.88;;;4.21;54.36
51261;BME280;61705;46.228;24.812;2023-03-18T08:45:02;98108.97;;;4.40;50.54
51261;BME280;61705;46.228;24.812;2023-03-18T08:47:30;98109.50;;;4.64;52.00
51261;BME280;61705;46.228;24.812;2023-03-18T08:49:57;98106.72;;;4.74;51.81
51261;BME280;61705;46.228;24.812;2023-03-18T08:52:24;98098.84;;;4.76;51.77
51261;BME280;61705;46.228;24.812;2023-03-18T08:54:51;98099.78;;;4.72;50.51
51261;BME280;61705;46.228;24.812;2023-03-18T08:57:18;98100.69;;;4.68;52.38
51261;BME280;61705;46.228;24.812;2023-03-18T08:59:44;98095.34;;;4.79;51.04
51261;BME280;61705;46.228;24.812;2023-03-18T09:02:18;98091.72;;;4.86;47.29
51261;BME280;61705;46.228;24.812;2023-03-18T09:04:45;98094.47;;;4.77;48.41
51261;BME280;61705;46.228;24.812;2023-03-18T09:07:13;98095.09;;;4.92;47.56
51261;BME280;61705;46.228;24.812;2023-03-18T09:09:43;98088.75;;;5.07;46.94
51261;BME280;61705;46.228;24.812;2023-03-18T09:12:10;98091.03;;;5.27;46.78
51261;BME280;61705;46.228;24.812;2023-03-18T09:14:40;98099.13;;;5.12;44.58
51261;BME280;61705;46.228;24.812;2023-03-18T09:17:08;98097.47;;;5.08;44.99
51261;BME280;61705;46.228;24.812;2023-03-18T09:19:35;98096.31;;;5.22;45.31
51261;BME280;61705;46.228;24.812;2023-03-18T09:22:03;98098.06;;;5.23;45.49
51261;BME280;61705;46.228;24.812;2023-03-18T09:24:30;98100.69;;;5.22;47.00
51261;BME280;61705;46.228;24.812;2023-03-18T09:26:57;98104.84;;;5.37;47.06
51261;BME280;61705;46.228;24.812;2023-03-18T09:29:42;98100.03;;;5.59;46.36
51261;BME280;61705;46.228;24.812;2023-03-18T09:32:32;98089.41;;;5.68;45.02
51261;BME280;61705;46.228;24.812;2023-03-18T09:35:02;98092.88;;;5.68;45.20
51261;BME280;61705;46.228;24.812;2023-03-18T09:37:31;98086.25;;;5.94;45.03
51261;BME280;61705;46.228;24.812;2023-03-18T09:39:59;98096.19;;;6.22;43.75
51261;BME280;61705;46.228;24.812;2023-03-18T09:44:57;98088.97;;;5.88;44.04
51261;BME280;61705;46.228;24.812;2023-03-18T09:49:59;98084.56;;;5.93;44.20
51261;BME280;61705;46.228;24.812;2023-03-18T09:53:09;98087.94;;;5.98;43.98
51261;BME280;61705;46.228;24.812;2023-03-18T09:55:28;98083.06;;;6.22;44.81
51261;BME280;61705;46.228;24.812;2023-03-18T09:58:01;98091.94;;;6.16;45.09
51261;BME280;61705;46.228;24.812;2023-03-18T10:00:32;98097.28;;;6.52;44.32
51261;BME280;61705;46.228;24.812;2023-03-18T10:08:08;98099.53;;;6.69;43.67
51261;BME280;61705;46.228;24.812;2023-03-18T10:10:41;98091.03;;;6.95;43.73
51261;BME280;61705;46.228;24.812;2023-03-18T10:13:20;98087.44;;;6.97;43.09
51261;BME280;61705;46.228;24.812;2023-03-18T10:15:49;98093.13;;;7.16;43.46
51261;BME280;61705;46.228;24.812;2023-03-18T10:18:24;98087.63;;;6.89;44.11
51261;BME280;61705;46.228;24.812;2023-03-18T10:23:48;98080.41;;;6.99;43.54
51261;BME280;61705;46.228;24.812;2023-03-18T10:26:48;98084.22;;;6.86;44.08
51261;BME280;61705;46.228;24.812;2023-03-18T10:29:41;98085.75;;;6.59;44.35
51261;BME280;61705;46.228;24.812;2023-03-18T10:32:42;98069.66;;;6.73;44.48
51261;BME280;61705;46.228;24.812;2023-03-18T10:35:38;98071.53;;;6.68;44.76
51261;BME280;61705;46.228;24.812;2023-03-18T10:38:23;98078.97;;;6.86;44.79
51261;BME280;61705;46.228;24.812;2023-03-18T10:40:55;98076.72;;;7.06;45.06
51261;BME280;61705;46.228;24.812;2023-03-18T10:43:25;98078.34;;;7.12;45.41
51261;BME280;61705;46.228;24.812;2023-03-18T10:46:00;98074.78;;;6.79;45.95
51261;BME280;61705;46.228;24.812;2023-03-18T10:48:37;98061.94;;;7.02;45.56
51261;BME280;61705;46.228;24.812;2023-03-18T10:56:23;98051.78;;;7.23;44.95
51261;BME280;61705;46.228;24.812;2023-03-18T10:58:50;98056.38;;;7.15;45.35
51261;BME280;61705;46.228;24.812;2023-03-18T11:01:22;98052.69;;;7.22;45.62
51261;BME280;61705;46.228;24.812;2023-03-18T11:03:58;98051.56;;;7.30;44.90
51261;BME280;61705;46.228;24.812;2023-03-18T11:06:37;98038.34;;;7.33;45.11
51261;BME280;61705;46.228;24.812;2023-03-18T11:09:10;98033.09;;;7.33;45.41
51261;BME280;61705;46.228;24.812;2023-03-18T11:11:47;98035.03;;;7.59;45.25
51261;BME280;61705;46.228;24.812;2023-03-18T11:14:18;98028.78;;;7.62;44.41
51261;BME280;61705;46.228;24.812;2023-03-18T11:17:04;98031.25;;;7.68;43.55
51261;BME280;61705;46.228;24.812;2023-03-18T11:22:08;98016.91;;;7.80;43.23
51261;BME280;61705;46.228;24.812;2023-03-18T11:24:39;98017.38;;;7.94;43.51
51261;BME280;61705;46.228;24.812;2023-03-18T11:29:40;98008.78;;;7.88;42.63
51261;BME280;61705;46.228;24.812;2023-03-18T11:32:11;98012.44;;;7.82;43.34
51261;BME280;61705;46.228;24.812;2023-03-18T11:34:52;98002.97;;;7.76;43.88
51261;BME280;61705;46.228;24.812;2023-03-18T11:37:19;98009.31;;;7.99;43.62
51261;BME280;61705;46.228;24.812;2023-03-18T11:39:46;98011.78;;;8.05;43.91
51261;BME280;61705;46.228;24.812;2023-03-18T11:42:18;98007.63;;;7.96;43.83
51261;BME280;61705;46.228;24.812;2023-03-18T11:44:52;97997.34;;;7.89;43.95
51261;BME280;61705;46.228;24.812;2023-03-18T11:49:46;97987.16;;;8.07;43.45
51261;BME280;61705;46.228;24.812;2023-03-18T11:52:25;97981.16;;;8.02;43.75
51261;BME280;61705;46.228;24.812;2023-03-18T11:57:44;97980.63;;;7.90;44.20
51261;BME280;61705;46.228;24.812;2023-03-18T12:02:52;97981.06;;;8.34;43.30
51261;BME280;61705;46.228;24.812;2023-03-18T12:25:56;97960.69;;;8.93;42.92
51261;BME280;61705;46.228;24.812;2023-03-18T12:36:03;97959.84;;;8.93;43.94
51261;BME280;61705;46.228;24.812;2023-03-18T12:38:51;97961.81;;;9.11;43.68
51261;BME280;61705;46.228;24.812;2023-03-18T12:44:01;97948.09;;;9.27;42.48
51261;BME280;61705;46.228;24.812;2023-03-18T12:46:34;97947.25;;;9.49;42.12
51261;BME280;61705;46.228;24.812;2023-03-18T12:49:24;97935.44;;;9.60;42.29
51261;BME280;61705;46.228;24.812;2023-03-18T12:52:05;97946.47;;;9.47;42.73
51261;BME280;61705;46.228;24.812;2023-03-18T12:54:35;97946.81;;;9.62;42.55
51261;BME280;61705;46.228;24.812;2023-03-18T12:57:13;97938.25;;;9.55;42.72
51261;BME280;61705;46.228;24.812;2023-03-18T12:59:49;97940.78;;;9.58;42.23
51261;BME280;61705;46.228;24.812;2023-03-18T13:02:42;97936.59;;;9.76;42.52
51261;BME280;61705;46.228;24.812;2023-03-18T13:10:23;97930.34;;;9.55;41.79
51261;BME280;61705;46.228;24.812;2023-03-18T13:12:50;97931.22;;;9.78;41.81
51261;BME280;61705;46.228;24.812;2023-03-18T13:15:39;97927.94;;;9.94;41.19
51261;BME280;61705;46.228;24.812;2023-03-18T13:18:12;97926.44;;;9.89;41.53
51261;BME280;61705;46.228;24.812;2023-03-18T13:20:40;97919.25;;;9.92;41.36
51261;BME280;61705;46.228;24.812;2023-03-18T13:23:15;97912.81;;;10.00;40.85
51261;BME280;61705;46.228;24.812;2023-03-18T13:28:37;97926.53;;;10.31;41.08
51261;BME280;61705;46.228;24.812;2023-03-18T13:34:34;97918.38;;;10.37;40.74
51261;BME280;61705;46.228;24.812;2023-03-18T13:37:21;97911.66;;;10.51;40.59
51261;BME280;61705;46.228;24.812;2023-03-18T13:40:31;97905.19;;;10.58;40.56
51261;BME280;61705;46.228;24.812;2023-03-18T13:43:16;97903.56;;;10.96;39.76
51261;BME280;61705;46.228;24.812;2023-03-18T13:45:57;97905.00;;;10.83;39.14
51261;BME280;61705;46.228;24.812;2023-03-18T13:48:39;97892.38;;;10.89;39.11
51261;BME280;61705;46.228;24.812;2023-03-18T13:51:47;97899.38;;;10.28;39.80
51261;BME280;61705;46.228;24.812;2023-03-18T13:54:15;97890.53;;;10.91;39.34
51261;BME280;61705;46.228;24.812;2023-03-18T13:56:50;97887.25;;;11.26;38.99
51261;BME280;61705;46.228;24.812;2023-03-18T14:04:54;97880.81;;;11.12;38.50
51261;BME280;61705;46.228;24.812;2023-03-18T14:07:27;97881.13;;;11.25;38.60
51261;BME280;61705;46.228;24.812;2023-03-18T14:12:46;97882.63;;;11.69;38.42
51261;BME280;61705;46.228;24.812;2023-03-18T14:18:01;97882.03;;;12.01;37.94
51261;BME280;61705;46.228;24.812;2023-03-18T14:20:34;97872.44;;;11.99;36.96
51261;BME280;61705;46.228;24.812;2023-03-18T14:29:28;97867.91;;;12.37;36.88
51261;BME280;61705;46.228;24.812;2023-03-18T14:37:30;97869.53;;;12.92;35.87
51261;BME280;61705;46.228;24.812;2023-03-18T14:40:17;97864.50;;;12.70;36.65
51261;BME280;61705;46.228;24.812;2023-03-18T14:43:01;97859.72;;;12.94;36.01
51261;BME280;61705;46.228;24.812;2023-03-18T14:46:20;97869.09;;;12.49;36.20
51261;BME280;61705;46.228;24.812;2023-03-18T14:48:38;97863.00;;;12.81;35.87
51261;BME280;61705;46.228;24.812;2023-03-18T14:51:18;97865.28;;;12.89;35.93
51261;BME280;61705;46.228;24.812;2023-03-18T14:56:19;97862.50;;;13.90;34.83
51261;BME280;61705;46.228;24.812;2023-03-18T14:58:47;97860.97;;;13.86;33.84